Time;durP1;ratioP1;P1;durP2;ratioP2;P2;SDS_P1;SDS_P2;PMS_P1;PMS_P2;Temp;Humidity;BMP_temperature;BMP_pressure;BME280_temperature;BME280_humidity;BME280_pressure;Samples;Min_cycle;Max_cycle;Signal;HPM_P1;HPM_P2
2023/04/09 00:01:04;;;;;;;;;;;;;;;4.96;91.25;100591.22;4450987;32;32887;-87
2023/04/09 00:03:32;;;;;;;;;;;;;;;4.83;92.58;100595.38;4451672;32;34122;-88
2023/04/09 00:05:59;;;;;;;;;;;;;;;5.09;92.26;100586.28;4453661;32;34678;-87
2023/04/09 00:08:27;;;;;;;;;;;;;;;5.21;89.92;100592.38;4461221;32;33275;-87
2023/04/09 00:10:54;;;;;;;;;;;;;;;5.20;90.83;100595.72;4459744;32;34076;-87
2023/04/09 00:13:21;;;;;;;;;;;;;;;5.52;89.69;100589.63;4454858;32;33114;-86
2023/04/09 00:16:05;;;;;;;;;;;;;;;5.50;88.72;100586.03;4457385;32;33531;-86
2023/04/09 00:18:32;;;;;;;;;;;;;;;6.66;84.20;100583.66;4450863;32;34261;-87
2023/04/09 00:20:59;;;;;;;;;;;;;;;7.12;80.74;100583.47;4453468;32;34033;-86
2023/04/09 00:23:27;;;;;;;;;;;;;;;7.54;77.90;100576.94;4461392;32;34722;-88
2023/04/09 00:25:54;;;;;;;;;;;;;;;7.57;77.02;100577.19;4453459;32;33995;-88
2023/04/09 00:28:21;;;;;;;;;;;;;;;7.56;76.89;100580.53;4456008;32;34115;-87
2023/04/09 00:30:49;;;;;;;;;;;;;;;7.53;76.31;100580.31;4450226;32;33085;-87
2023/04/09 00:33:16;;;;;;;;;;;;;;;7.24;77.10;100580.84;4448139;32;34000;-86
2023/04/09 00:35:43;;;;;;;;;;;;;;;6.66;79.48;100587.88;4466199;32;34881;-89
2023/04/09 00:38:11;;;;;;;;;;;;;;;6.03;83.28;100580.69;4445449;32;32282;-86
2023/04/09 00:40:38;;;;;;;;;;;;;;;6.58;81.19;100578.72;4451718;32;33258;-86
2023/04/09 00:43:05;;;;;;;;;;;;;;;5.62;84.85;100579.28;4456168;32;33014;-91
2023/04/09 00:45:33;;;;;;;;;;;;;;;5.22;88.57;100577.88;4465991;32;33763;-89
2023/04/09 00:48:00;;;;;;;;;;;;;;;5.81;85.45;100583.25;4445579;32;34473;-88
2023/04/09 00:50:28;;;;;;;;;;;;;;;5.96;85.07;100579.31;4464629;32;33109;-89
2023/04/09 00:52:55;;;;;;;;;;;;;;;6.25;82.54;100575.44;4461543;32;33723;-89
2023/04/09 00:55:22;;;;;;;;;;;;;;;5.55;86.88;100574.44;4445021;32;33951;-90
2023/04/09 00:57:50;;;;;;;;;;;;;;;6.45;82.99;100577.81;4459043;32;33022;-88
2023/04/09 01:00:17;;;;;;;;;;;;;;;6.53;80.89;100572.31;4450394;32;31725;-88
2023/04/09 01:02:45;;;;;;;;;;;;;;;6.53;80.16;100574.91;4452515;32;33619;-90
2023/04/09 01:05:12;;;;;;;;;;;;;;;5.78;84.82;100572.75;4425955;32;33269;-89
2023/04/09 01:07:48;;;;;;;;;;;;;;;6.07;83.75;100573.28;4446442;32;34792;-89
2023/04/09 01:10:24;;;;;;;;;;;;;;;4.99;89.65;100578.63;4439875;32;31801;-88
2023/04/09 01:13:10;;;;;;;;;;;;;;;4.73;90.11;100580.91;4462378;32;33951;-88
2023/04/09 01:15:40;;;;;;;;;;;;;;;4.80;90.50;100577.16;4462490;32;34870;-87
2023/04/09 01:18:14;;;;;;;;;;;;;;;4.87;90.45;100587.13;4448568;32;32853;-88
2023/04/09 01:20:42;;;;;;;;;;;;;;;4.84;91.24;100586.88;4447951;32;32496;-88
2023/04/09 01:23:39;;;;;;;;;;;;;;;4.97;90.55;100575.03;4450279;32;33738;-85
2023/04/09 01:26:26;;;;;;;;;;;;;;;4.91;90.73;100573.78;4445087;32;32855;-86
2023/04/09 01:28:55;;;;;;;;;;;;;;;5.63;87.33;100575.94;4467341;32;34541;-86
2023/04/09 01:31:33;;;;;;;;;;;;;;;4.82;89.43;100585.87;4438860;32;31680;-86
2023/04/09 01:34:00;;;;;;;;;;;;;;;4.62;91.31;100585.94;4443803;32;34152;-87
2023/04/09 01:36:28;;;;;;;;;;;;;;;4.46;92.36;100582.13;4469677;32;33986;-86
2023/04/09 01:38:59;;;;;;;;;;;;;;;4.69;91.50;100577.94;4464477;32;34130;-85
2023/04/09 01:41:26;;;;;;;;;;;;;;;5.56;89.05;100585.63;4453416;32;33594;-87
2023/04/09 01:43:53;;;;;;;;;;;;;;;5.26;88.26;100588.50;4442299;32;34816;-87
2023/04/09 01:46:21;;;;;;;;;;;;;;;4.97;89.17;100580.19;4454451;32;35202;-90
2023/04/09 01:48:48;;;;;;;;;;;;;;;5.12;89.33;100581.38;4454687;32;34307;-89
2023/04/09 01:51:16;;;;;;;;;;;;;;;5.05;90.33;100584.25;4469318;32;33792;-87
2023/04/09 01:53:43;;;;;;;;;;;;;;;4.31;93.19;100588.59;4468807;32;33621;-86
2023/04/09 01:56:11;;;;;;;;;;;;;;;4.49;92.72;100584.94;4464414;32;34117;-87
2023/04/09 01:58:39;;;;;;;;;;;;;;;4.73;92.06;100585.13;4463797;32;33905;-86
2023/04/09 02:01:23;;;;;;;;;;;;;;;4.41;92.54;100582.53;4463741;32;32599;-86
2023/04/09 02:03:55;;;;;;;;;;;;;;;5.41;88.90;100577.59;4454542;32;34018;-86
2023/04/09 02:06:31;;;;;;;;;;;;;;;4.87;88.51;100593.94;4466491;32;33912;-87
2023/04/09 02:09:00;;;;;;;;;;;;;;;4.53;90.84;100591.22;4454186;32;33853;-86
2023/04/09 02:11:28;;;;;;;;;;;;;;;4.44;91.14;100591.38;4454874;32;31368;-87
2023/04/09 02:13:55;;;;;;;;;;;;;;;4.28;91.84;100578.06;4442577;32;33035;-86
2023/04/09 02:16:23;;;;;;;;;;;;;;;4.26;92.18;100579.59;4453300;32;33711;-86
2023/04/09 02:18:54;;;;;;;;;;;;;;;4.14;92.27;100585.50;4454994;32;33979;-86
2023/04/09 02:21:22;;;;;;;;;;;;;;;4.56;90.91;100580.28;4455663;32;33110;-86
2023/04/09 02:23:49;;;;;;;;;;;;;;;4.72;89.19;100581.66;4465508;32;34493;-86
2023/04/09 02:26:17;;;;;;;;;;;;;;;4.99;87.09;100576.06;4442646;32;32502;-86
2023/04/09 02:28:45;;;;;;;;;;;;;;;4.29;90.59;100579.87;4463592;32;34580;-86
2023/04/09 02:31:12;;;;;;;;;;;;;;;4.33;90.32;100577.66;4450719;32;33262;-86
2023/04/09 02:33:40;;;;;;;;;;;;;;;4.40;90.21;100579.06;4456726;32;33562;-86
2023/04/09 02:36:13;;;;;;;;;;;;;;;4.39;89.67;100577.28;4455236;32;34902;-86
2023/04/09 02:38:41;;;;;;;;;;;;;;;4.14;90.87;100575.25;4467132;32;33993;-86
2023/04/09 02:41:09;;;;;;;;;;;;;;;4.29;90.38;100585.00;4449958;32;31618;-86
2023/04/09 02:43:36;;;;;;;;;;;;;;;4.25;90.73;100572.66;4453590;32;34023;-86
2023/04/09 02:46:03;;;;;;;;;;;;;;;4.18;91.23;100575.53;4453352;32;33681;-86
2023/04/09 02:48:32;;;;;;;;;;;;;;;4.18;91.98;100576.41;4453686;32;34034;-86
2023/04/09 02:50:59;;;;;;;;;;;;;;;4.00;nan;100575.78;4455329;32;33410;-86
2023/04/09 02:53:27;;;;;;;;;;;;;;;4.01;93.82;100572.44;4445257;32;33034;-86
2023/04/09 02:55:54;;;;;;;;;;;;;;;3.98;94.68;100574.78;4439720;32;33629;-86
2023/04/09 02:58:22;;;;;;;;;;;;;;;4.82;91.03;100570.47;4438767;32;33146;-86
2023/04/09 03:00:49;;;;;;;;;;;;;;;4.42;91.76;100567.25;4452291;32;33350;-86
2023/04/09 03:03:16;;;;;;;;;;;;;;;4.43;90.06;100570.72;4426605;32;32699;-86
2023/04/09 03:05:44;;;;;;;;;;;;;;;4.04;92.95;100572.72;4436450;32;33547;-86
2023/04/09 03:08:11;;;;;;;;;;;;;;;4.09;92.79;100566.28;4435292;32;34465;-86
2023/04/09 03:10:39;;;;;;;;;;;;;;;4.11;91.99;100572.47;4425349;32;32180;-86
2023/04/09 03:13:06;;;;;;;;;;;;;;;4.26;91.43;100574.47;4438656;32;33733;-86
2023/04/09 03:15:33;;;;;;;;;;;;;;;4.09;91.26;100578.19;4425815;32;34209;-86
2023/04/09 03:18:01;;;;;;;;;;;;;;;4.04;92.58;100567.59;4426544;32;34417;-86
2023/04/09 03:20:28;;;;;;;;;;;;;;;4.11;91.92;100574.09;4452845;32;33560;-86
2023/04/09 03:22:55;;;;;;;;;;;;;;;4.09;91.31;100570.50;4438599;32;34397;-86
2023/04/09 03:25:24;;;;;;;;;;;;;;;4.13;90.94;100576.03;4453268;32;33753;-86
2023/04/09 03:27:52;;;;;;;;;;;;;;;3.87;92.56;100572.97;4426225;32;33235;-86
2023/04/09 03:30:20;;;;;;;;;;;;;;;3.89;92.41;100572.31;4438601;32;33664;-86
2023/04/09 03:32:48;;;;;;;;;;;;;;;3.84;92.21;100572.69;4439157;32;33986;-86
2023/04/09 03:35:15;;;;;;;;;;;;;;;3.70;92.63;100575.00;4452021;32;33719;-86
2023/04/09 03:37:43;;;;;;;;;;;;;;;3.73;92.42;100575.28;4425339;32;33435;-86
2023/04/09 03:40:12;;;;;;;;;;;;;;;3.69;92.29;100573.22;4437288;32;33479;-87
2023/04/09 03:42:41;;;;;;;;;;;;;;;3.79;91.94;100574.00;4451563;32;33839;-86
2023/04/09 03:45:09;;;;;;;;;;;;;;;3.90;90.99;100573.22;4425905;32;34240;-86
2023/04/09 03:47:38;;;;;;;;;;;;;;;3.75;90.82;100567.72;4438938;32;34350;-86
2023/04/09 03:50:05;;;;;;;;;;;;;;;4.11;89.97;100575.03;4446378;32;33744;-87
2023/04/09 03:52:37;;;;;;;;;;;;;;;3.93;90.70;100574.38;4420805;32;33811;-86
2023/04/09 03:55:05;;;;;;;;;;;;;;;3.23;92.98;100579.56;4434348;32;34002;-86
2023/04/09 03:57:32;;;;;;;;;;;;;;;3.07;94.48;100582.47;4430151;32;34243;-86
2023/04/09 04:00:00;;;;;;;;;;;;;;;3.08;94.35;100575.66;4439525;32;33448;-86
2023/04/09 04:02:33;;;;;;;;;;;;;;;2.88;95.45;100595.31;4439229;32;31953;-86
2023/04/09 04:05:02;;;;;;;;;;;;;;;2.66;97.31;100591.59;4443065;32;34640;-86
2023/04/09 04:07:31;;;;;;;;;;;;;;;2.70;97.98;100593.66;4451163;32;34047;-86
2023/04/09 04:09:59;;;;;;;;;;;;;;;2.70;97.86;100593.66;4440528;32;32743;-85
2023/04/09 04:12:26;;;;;;;;;;;;;;;2.85;97.34;100595.03;4421692;32;33305;-86
2023/04/09 04:14:57;;;;;;;;;;;;;;;2.97;96.76;100601.97;4435213;32;33451;-86
2023/04/09 04:17:25;;;;;;;;;;;;;;;2.98;96.72;100593.56;4426777;32;32621;-86
2023/04/09 04:19:53;;;;;;;;;;;;;;;3.26;95.34;100590.03;4453859;32;32128;-86
2023/04/09 04:22:20;;;;;;;;;;;;;;;3.24;94.94;100591.56;4441031;32;33518;-86
2023/04/09 04:24:51;;;;;;;;;;;;;;;3.45;94.38;100594.19;4440175;32;32792;-86
2023/04/09 04:27:19;;;;;;;;;;;;;;;3.66;93.49;100588.31;4438827;32;33745;-87
2023/04/09 04:29:46;;;;;;;;;;;;;;;3.56;93.45;100596.00;4439838;32;33689;-86
2023/04/09 04:32:15;;;;;;;;;;;;;;;3.35;94.61;100606.19;4448736;32;34145;-86
2023/04/09 04:34:43;;;;;;;;;;;;;;;3.18;96.25;100591.03;4439344;32;32200;-86
2023/04/09 04:37:12;;;;;;;;;;;;;;;3.57;95.17;100597.78;4439945;32;33847;-86
2023/04/09 04:39:39;;;;;;;;;;;;;;;4.01;92.60;100600.66;4438580;32;33858;-86
2023/04/09 04:42:07;;;;;;;;;;;;;;;4.11;91.58;100600.66;4443269;32;34203;-86
2023/04/09 04:44:35;;;;;;;;;;;;;;;4.13;91.50;100611.00;4452904;32;34927;-86
2023/04/09 04:47:04;;;;;;;;;;;;;;;4.13;91.90;100601.69;4434830;32;33554;-86
2023/04/09 04:49:31;;;;;;;;;;;;;;;4.21;91.74;100606.53;4426742;32;32022;-86
2023/04/09 04:51:59;;;;;;;;;;;;;;;4.23;91.59;100616.16;4440272;32;32967;-86
2023/04/09 04:54:26;;;;;;;;;;;;;;;4.14;91.93;100616.28;4440096;32;33432;-86
2023/04/09 04:56:55;;;;;;;;;;;;;;;4.21;92.23;100612.56;4438992;32;35043;-86
2023/04/09 04:59:23;;;;;;;;;;;;;;;4.49;91.15;100615.72;4462303;32;33568;-87
2023/04/09 05:01:52;;;;;;;;;;;;;;;4.67;90.57;100606.06;4453285;32;33407;-86
2023/04/09 05:04:20;;;;;;;;;;;;;;;4.50;90.78;100607.28;4460245;32;34234;-86
2023/04/09 05:06:47;;;;;;;;;;;;;;;5.11;88.61;100605.25;4468838;32;34235;-87
2023/04/09 05:09:15;;;;;;;;;;;;;;;4.66;89.91;100619.66;4448722;32;33891;-86
2023/04/09 05:11:44;;;;;;;;;;;;;;;4.72;90.75;100616.72;4454561;32;34291;-86
2023/04/09 05:14:12;;;;;;;;;;;;;;;5.02;88.99;100625.06;4458517;32;33056;-87
2023/04/09 05:16:39;;;;;;;;;;;;;;;4.89;89.85;100624.09;4439774;32;32687;-87
2023/04/09 05:19:07;;;;;;;;;;;;;;;4.57;90.86;100625.72;4450483;32;33080;-87
2023/04/09 05:21:36;;;;;;;;;;;;;;;5.51;88.18;100618.69;4447823;32;33997;-86
2023/04/09 05:24:05;;;;;;;;;;;;;;;5.02;88.42;100620.84;4443370;32;34859;-86
2023/04/09 05:26:33;;;;;;;;;;;;;;;4.82;89.94;100621.81;4447008;32;32836;-86
2023/04/09 05:29:01;;;;;;;;;;;;;;;5.36;88.75;100622.63;4445967;32;33694;-86
2023/04/09 05:31:28;;;;;;;;;;;;;;;6.30;84.23;100617.88;4453260;32;34117;-86
2023/04/09 05:33:57;;;;;;;;;;;;;;;5.20;87.70;100616.28;4441405;32;33497;-87
2023/04/09 05:36:25;;;;;;;;;;;;;;;5.30;88.63;100623.03;4446205;32;33616;-86
2023/04/09 05:38:52;;;;;;;;;;;;;;;5.60;87.40;100627.09;4439748;32;32765;-86
2023/04/09 05:41:20;;;;;;;;;;;;;;;5.81;86.02;100621.81;4466165;32;34859;-86
2023/04/09 05:43:48;;;;;;;;;;;;;;;5.82;86.13;100621.06;4456428;32;34510;-86
2023/04/09 05:46:17;;;;;;;;;;;;;;;5.63;87.04;100624.75;4455341;32;34427;-87
2023/04/09 05:48:45;;;;;;;;;;;;;;;5.57;86.96;100624.28;4465729;32;33785;-86
2023/04/09 05:51:14;;;;;;;;;;;;;;;6.12;86.18;100626.75;4464462;32;34807;-86
2023/04/09 05:53:41;;;;;;;;;;;;;;;6.84;80.54;100621.81;4451175;32;35558;-86
2023/04/09 05:56:14;;;;;;;;;;;;;;;5.60;86.68;100629.69;4442342;32;32325;-86
2023/04/09 05:58:44;;;;;;;;;;;;;;;6.10;84.21;100624.97;4459604;32;33107;-86
2023/04/09 06:01:12;;;;;;;;;;;;;;;5.61;86.99;100628.00;4448376;32;32958;-86
2023/04/09 06:03:39;;;;;;;;;;;;;;;5.12;89.32;100643.03;4449496;32;31276;-86
2023/04/09 06:06:06;;;;;;;;;;;;;;;5.48;88.36;100639.88;4450006;32;32852;-86
2023/04/09 06:08:34;;;;;;;;;;;;;;;5.76;87.20;100641.16;4460991;32;32928;-86
2023/04/09 06:11:03;;;;;;;;;;;;;;;5.83;87.29;100634.03;4460880;32;33975;-86
2023/04/09 06:13:30;;;;;;;;;;;;;;;5.54;88.69;100643.72;4450048;32;34204;-86
2023/04/09 06:15:57;;;;;;;;;;;;;;;5.89;88.37;100629.34;4452366;32;33854;-86
2023/04/09 06:18:25;;;;;;;;;;;;;;;6.85;82.46;100642.50;4448877;32;32944;-86
2023/04/09 06:21:12;;;;;;;;;;;;;;;5.51;88.73;100644.37;4447182;32;33634;-86
2023/04/09 06:23:40;;;;;;;;;;;;;;;5.64;88.77;100647.13;4464716;32;32517;-86
2023/04/09 06:26:07;;;;;;;;;;;;;;;6.12;87.12;100642.19;4466149;32;34242;-87
2023/04/09 06:28:35;;;;;;;;;;;;;;;5.48;90.45;100646.69;4452433;32;31484;-86
2023/04/09 06:31:02;;;;;;;;;;;;;;;6.64;86.33;100636.69;4453392;32;33589;-86
2023/04/09 06:33:30;;;;;;;;;;;;;;;7.26;81.14;100638.53;4468168;32;34165;-86
2023/04/09 06:35:57;;;;;;;;;;;;;;;6.89;83.44;100636.81;4462848;32;34075;-86
2023/04/09 06:38:25;;;;;;;;;;;;;;;6.52;85.77;100640.03;4447749;32;34340;-86
2023/04/09 06:40:54;;;;;;;;;;;;;;;6.64;85.46;100639.25;4468517;32;33871;-86
2023/04/09 06:43:21;;;;;;;;;;;;;;;7.56;80.73;100631.22;4459731;32;33956;-86
2023/04/09 06:45:49;;;;;;;;;;;;;;;7.51;79.80;100636.03;4465205;32;34264;-86
2023/04/09 06:48:16;;;;;;;;;;;;;;;7.05;83.01;100637.91;4453985;32;32810;-87
2023/04/09 06:50:44;;;;;;;;;;;;;;;7.93;79.85;100637.22;4453298;32;33505;-87
2023/04/09 06:53:11;;;;;;;;;;;;;;;8.20;77.77;100640.78;4453331;32;33654;-87
2023/04/09 06:55:39;;;;;;;;;;;;;;;6.44;85.86;100645.50;4456837;32;32265;-87
2023/04/09 06:58:06;;;;;;;;;;;;;;;6.52;87.28;100646.06;4449533;32;32661;-86
2023/04/09 07:00:33;;;;;;;;;;;;;;;7.00;84.36;100647.00;4458382;32;35680;-86
2023/04/09 07:03:01;;;;;;;;;;;;;;;6.71;85.87;100650.03;4448028;32;34490;-86
2023/04/09 07:05:29;;;;;;;;;;;;;;;7.93;80.14;100655.28;4453617;32;33739;-86
2023/04/09 07:07:57;;;;;;;;;;;;;;;6.88;82.29;100658.19;4463848;32;32705;-86
2023/04/09 07:10:24;;;;;;;;;;;;;;;7.48;80.52;100656.44;4461427;32;33959;-86
2023/04/09 07:12:51;;;;;;;;;;;;;;;8.13;76.60;100659.25;4448013;32;33978;-86
2023/04/09 07:15:19;;;;;;;;;;;;;;;7.30;77.70;100658.59;4448587;32;34551;-86
2023/04/09 07:17:46;;;;;;;;;;;;;;;7.23;78.90;100659.84;4458699;32;33165;-86
2023/04/09 07:20:13;;;;;;;;;;;;;;;7.60;79.54;100665.03;4449232;32;33896;-86
2023/04/09 07:22:41;;;;;;;;;;;;;;;7.58;80.01;100661.47;4461716;32;35026;-86
2023/04/09 07:25:08;;;;;;;;;;;;;;;7.42;79.82;100661.19;4448616;32;33896;-86
2023/04/09 07:27:35;;;;;;;;;;;;;;;7.12;81.74;100668.47;4456539;32;33948;-86
2023/04/09 07:30:03;;;;;;;;;;;;;;;7.60;78.96;100669.31;4446868;32;34263;-85
2023/04/09 07:32:30;;;;;;;;;;;;;;;6.99;80.90;100670.94;4449097;32;32937;-86
2023/04/09 07:34:58;;;;;;;;;;;;;;;7.04;81.58;100675.66;4461211;32;35298;-87
2023/04/09 07:37:26;;;;;;;;;;;;;;;8.01;78.21;100668.72;4462112;32;33784;-85
2023/04/09 07:39:53;;;;;;;;;;;;;;;8.63;75.13;100673.78;4448621;32;31545;-86
2023/04/09 07:42:20;;;;;;;;;;;;;;;7.65;74.71;100668.84;4458101;32;34244;-86
2023/04/09 07:44:48;;;;;;;;;;;;;;;8.10;75.36;100668.47;4459873;32;33550;-87
2023/04/09 07:47:15;;;;;;;;;;;;;;;8.90;72.89;100671.22;4459713;32;32856;-87
2023/04/09 07:49:42;;;;;;;;;;;;;;;8.53;72.24;100669.69;4448980;32;34169;-88
2023/04/09 07:52:10;;;;;;;;;;;;;;;8.33;74.09;100673.50;4453253;32;33898;-87
2023/04/09 07:54:37;;;;;;;;;;;;;;;9.18;72.61;100682.56;4441410;32;34021;-87
2023/04/09 07:57:04;;;;;;;;;;;;;;;9.58;70.93;100674.75;4448669;32;33952;-87
2023/04/09 07:59:33;;;;;;;;;;;;;;;9.63;69.54;100675.91;4457775;32;34213;-86
2023/04/09 08:02:00;;;;;;;;;;;;;;;9.79;69.14;100674.28;4451366;32;33902;-86
2023/04/09 08:04:28;;;;;;;;;;;;;;;9.23;66.29;100670.84;4464900;32;34541;-86
2023/04/09 08:06:55;;;;;;;;;;;;;;;9.53;66.87;100681.31;4450515;32;31795;-86
2023/04/09 08:09:22;;;;;;;;;;;;;;;10.09;64.80;100674.37;4466946;32;34731;-86
2023/04/09 08:11:50;;;;;;;;;;;;;;;10.06;65.80;100664.72;4452821;32;34924;-86
2023/04/09 08:14:17;;;;;;;;;;;;;;;10.34;64.74;100669.91;4459145;32;34809;-87
2023/04/09 08:16:45;;;;;;;;;;;;;;;9.70;65.30;100665.97;4453437;32;33403;-84
2023/04/09 08:19:14;;;;;;;;;;;;;;;10.16;65.49;100666.16;4466091;32;34559;-86
2023/04/09 08:21:42;;;;;;;;;;;;;;;10.71;62.10;100663.41;4463787;32;34668;-86
2023/04/09 08:24:10;;;;;;;;;;;;;;;11.07;61.51;100669.81;4452812;32;33979;-86
2023/04/09 08:26:38;;;;;;;;;;;;;;;11.26;60.53;100670.81;4462470;32;33370;-86
2023/04/09 08:29:06;;;;;;;;;;;;;;;10.66;59.82;100676.06;4466037;32;35322;-85
2023/04/09 08:31:33;;;;;;;;;;;;;;;10.52;61.50;100672.69;4464273;32;33678;-86
2023/04/09 08:34:02;;;;;;;;;;;;;;;10.69;60.75;100681.44;4448167;32;33919;-87
2023/04/09 08:36:30;;;;;;;;;;;;;;;11.06;60.34;100683.56;4466431;32;32265;-88
2023/04/09 08:38:59;;;;;;;;;;;;;;;11.81;58.08;100679.03;4456887;32;34049;-87
2023/04/09 08:41:30;;;;;;;;;;;;;;;11.45;59.05;100678.81;4460208;32;33364;-86
2023/04/09 08:43:59;;;;;;;;;;;;;;;11.57;56.80;100682.09;4465609;32;33739;-86
2023/04/09 08:46:27;;;;;;;;;;;;;;;10.97;56.42;100688.22;4445234;32;33111;-87
2023/04/09 08:48:54;;;;;;;;;;;;;;;11.13;58.89;100693.47;4461387;32;32607;-87
2023/04/09 08:51:22;;;;;;;;;;;;;;;11.14;59.50;100696.97;4449953;32;32590;-87
2023/04/09 08:53:53;;;;;;;;;;;;;;;11.14;59.25;100692.66;4452365;32;34574;-86
2023/04/09 08:56:21;;;;;;;;;;;;;;;11.14;58.48;100703.03;4467942;32;32704;-87
2023/04/09 08:58:48;;;;;;;;;;;;;;;11.51;57.89;100699.94;4466234;32;34142;-86
2023/04/09 09:01:20;;;;;;;;;;;;;;;11.51;57.53;100699.94;4449371;32;33857;-86
2023/04/09 09:04:03;;;;;;;;;;;;;;;11.58;57.27;100707.22;4435639;32;34532;-86
2023/04/09 09:06:32;;;;;;;;;;;;;;;11.89;56.57;100701.16;4442800;32;33155;-86
2023/04/09 09:09:00;;;;;;;;;;;;;;;12.17;55.56;100706.12;4460663;32;34070;-87
2023/04/09 09:11:29;;;;;;;;;;;;;;;11.96;55.29;100703.28;4459887;32;33981;-87
2023/04/09 09:13:57;;;;;;;;;;;;;;;12.06;55.71;100701.16;4455605;32;33729;-87
2023/04/09 09:16:24;;;;;;;;;;;;;;;11.98;54.12;100709.44;4467682;32;33421;-88
2023/04/09 09:18:52;;;;;;;;;;;;;;;12.09;54.23;100706.50;4457987;32;34021;-88
2023/04/09 09:21:21;;;;;;;;;;;;;;;12.14;54.76;100707.66;4455090;32;33914;-87
2023/04/09 09:23:49;;;;;;;;;;;;;;;12.18;54.17;100709.59;4443371;32;33965;-86
2023/04/09 09:26:18;;;;;;;;;;;;;;;12.15;55.14;100706.84;4451700;32;33402;-86
2023/04/09 09:28:47;;;;;;;;;;;;;;;11.84;54.17;100705.19;4448363;32;34619;-85
2023/04/09 09:31:15;;;;;;;;;;;;;;;12.39;53.79;100708.13;4464524;32;33929;-87
2023/04/09 09:33:42;;;;;;;;;;;;;;;13.23;50.19;100696.66;4463861;32;33990;-87
2023/04/09 09:36:10;;;;;;;;;;;;;;;12.22;51.84;100701.16;4453966;32;32452;-86
2023/04/09 09:38:49;;;;;;;;;;;;;;;11.86;53.52;100698.37;4450341;32;33903;-86
2023/04/09 09:41:18;;;;;;;;;;;;;;;12.50;52.85;100700.00;4468537;32;34669;-87
2023/04/09 09:43:45;;;;;;;;;;;;;;;11.89;52.31;100693.34;4467436;32;34719;-87
2023/04/09 09:46:12;;;;;;;;;;;;;;;11.06;54.90;100693.94;4463890;32;32683;-87
2023/04/09 09:48:41;;;;;;;;;;;;;;;11.60;54.71;100695.22;4446622;32;34983;-85
2023/04/09 09:51:09;;;;;;;;;;;;;;;12.25;53.95;100698.72;4441876;32;35009;-85
2023/04/09 09:53:37;;;;;;;;;;;;;;;12.32;54.36;100695.66;4464914;32;34190;-86
2023/04/09 09:56:05;;;;;;;;;;;;;;;12.69;53.26;100686.22;4451429;32;33861;-87
2023/04/09 09:58:37;;;;;;;;;;;;;;;12.51;52.27;100680.97;4445471;32;32483;-89
2023/04/09 10:01:10;;;;;;;;;;;;;;;12.85;51.71;100693.09;4451441;32;34257;-85
2023/04/09 10:03:38;;;;;;;;;;;;;;;12.57;53.41;100691.69;4454273;32;33870;-86
2023/04/09 10:06:06;;;;;;;;;;;;;;;12.59;54.22;100695.25;4453525;32;32909;-88
2023/04/09 10:08:34;;;;;;;;;;;;;;;12.67;53.35;100693.97;4463236;32;34636;-87
2023/04/09 10:11:03;;;;;;;;;;;;;;;12.22;54.62;100687.28;4449925;32;33983;-86
2023/04/09 10:13:37;;;;;;;;;;;;;;;12.70;52.72;100698.41;4452407;32;33738;-86
2023/04/09 10:16:08;;;;;;;;;;;;;;;13.16;50.72;100685.09;4468767;32;33842;-87
2023/04/09 10:18:35;;;;;;;;;;;;;;;12.81;52.58;100688.56;4454578;32;33910;-87
2023/04/09 10:21:09;;;;;;;;;;;;;;;12.82;51.77;100687.72;4454746;32;33887;-89
2023/04/09 10:23:37;;;;;;;;;;;;;;;13.39;50.98;100682.75;4452747;32;34126;-86
2023/04/09 10:26:05;;;;;;;;;;;;;;;11.87;54.55;100687.16;4453316;32;33463;-86
2023/04/09 10:28:32;;;;;;;;;;;;;;;12.54;53.65;100683.75;4455496;32;34042;-88
2023/04/09 10:31:00;;;;;;;;;;;;;;;12.63;52.62;100681.59;4452949;32;33361;-85
2023/04/09 10:33:27;;;;;;;;;;;;;;;12.91;53.75;100683.00;4454481;32;33570;-88
2023/04/09 10:35:58;;;;;;;;;;;;;;;12.13;55.58;100683.41;4444827;32;33305;-87
2023/04/09 10:38:32;;;;;;;;;;;;;;;12.84;53.79;100686.09;4452689;32;33718;-85
2023/04/09 10:40:59;;;;;;;;;;;;;;;12.90;53.14;100686.41;4465125;32;34819;-88
2023/04/09 10:43:28;;;;;;;;;;;;;;;13.02;51.98;100687.03;4452860;32;34120;-88
2023/04/09 10:45:55;;;;;;;;;;;;;;;12.76;51.95;100686.59;4439241;32;31689;-89
2023/04/09 10:48:24;;;;;;;;;;;;;;;13.11;50.91;100679.62;4451808;32;34203;-88
2023/04/09 10:50:52;;;;;;;;;;;;;;;13.10;51.41;100677.87;4453992;32;34181;-86
2023/04/09 10:53:22;;;;;;;;;;;;;;;12.97;51.04;100683.28;4456433;32;33721;-85
2023/04/09 10:55:51;;;;;;;;;;;;;;;13.20;50.41;100681.81;4461425;32;32935;-87
2023/04/09 10:58:19;;;;;;;;;;;;;;;13.26;51.01;100681.22;4462877;32;34954;-86
2023/04/09 11:00:47;;;;;;;;;;;;;;;13.41;49.41;100676.78;4454146;32;33686;-87
2023/04/09 11:03:17;;;;;;;;;;;;;;;13.16;50.57;100678.16;4450245;32;34219;-86
2023/04/09 11:05:51;;;;;;;;;;;;;;;13.18;50.90;100673.94;4461782;32;32890;-87
2023/04/09 11:08:20;;;;;;;;;;;;;;;13.37;50.59;100674.84;4445493;32;32894;-87
2023/04/09 11:10:48;;;;;;;;;;;;;;;12.98;52.73;100685.09;4451987;32;34231;-86
2023/04/09 11:13:19;;;;;;;;;;;;;;;13.50;50.42;100676.31;4447419;32;33377;-88
2023/04/09 11:15:46;;;;;;;;;;;;;;;13.59;51.06;100673.25;4463957;32;33701;-85
2023/04/09 11:18:27;;;;;;;;;;;;;;;13.49;51.02;100683.22;4467448;32;33929;-86
2023/04/09 11:20:58;;;;;;;;;;;;;;;13.87;49.63;100672.78;4463217;32;34198;-86
2023/04/09 11:23:26;;;;;;;;;;;;;;;13.57;50.98;100673.19;4449323;32;33716;-86
2023/04/09 11:25:53;;;;;;;;;;;;;;;13.68;48.98;100671.97;4446720;32;33761;-88
2023/04/09 11:28:21;;;;;;;;;;;;;;;13.29;50.59;100676.12;4460500;32;34085;-88
2023/04/09 11:30:49;;;;;;;;;;;;;;;12.15;52.89;100680.87;4453022;32;33440;-87
2023/04/09 11:33:16;;;;;;;;;;;;;;;12.31;53.00;100678.25;4459418;32;33706;-87
2023/04/09 11:35:46;;;;;;;;;;;;;;;11.83;54.71;100677.41;4462587;32;33694;-88
2023/04/09 11:38:14;;;;;;;;;;;;;;;12.10;56.03;100666.75;4463625;32;34019;-87
2023/04/09 11:40:48;;;;;;;;;;;;;;;11.94;53.63;100671.13;4448209;32;33703;-87
2023/04/09 11:43:16;;;;;;;;;;;;;;;12.20;53.30;100669.91;4453882;32;34403;-89
2023/04/09 11:45:46;;;;;;;;;;;;;;;12.66;52.45;100673.09;4452175;32;32887;-88
2023/04/09 11:48:16;;;;;;;;;;;;;;;12.65;52.01;100673.88;4448987;32;34300;-87
2023/04/09 11:50:44;;;;;;;;;;;;;;;13.51;50.16;100655.56;4447454;32;32631;-89
2023/04/09 11:53:18;;;;;;;;;;;;;;;12.59;51.30;100666.66;4442163;32;34609;-87
2023/04/09 11:55:46;;;;;;;;;;;;;;;13.65;49.85;100657.91;4465140;32;33064;-88
2023/04/09 11:58:14;;;;;;;;;;;;;;;13.60;48.03;100662.91;4450946;32;34013;-89
2023/04/09 12:00:41;;;;;;;;;;;;;;;13.72;48.66;100662.59;4446442;32;32511;-88
2023/04/09 12:03:09;;;;;;;;;;;;;;;13.72;47.12;100658.25;4450968;32;32889;-89
2023/04/09 12:05:38;;;;;;;;;;;;;;;13.18;47.38;100660.91;4453249;32;33553;-89
2023/04/09 12:08:09;;;;;;;;;;;;;;;13.69;48.25;100659.81;4464434;32;34097;-88
2023/04/09 12:10:37;;;;;;;;;;;;;;;13.77;49.59;100661.06;4448968;32;33321;-88
2023/04/09 12:13:04;;;;;;;;;;;;;;;14.53;47.29;100665.28;4446298;32;34476;-88
2023/04/09 12:15:33;;;;;;;;;;;;;;;14.31;46.75;100661.75;4449991;32;33980;-87
2023/04/09 12:18:00;;;;;;;;;;;;;;;14.57;46.03;100659.41;4444542;32;34070;-89
2023/04/09 12:20:29;;;;;;;;;;;;;;;14.36;46.87;100660.22;4466463;32;34185;-88
2023/04/09 12:22:59;;;;;;;;;;;;;;;14.20;46.09;100662.09;4459952;32;35045;-88
2023/04/09 12:25:26;;;;;;;;;;;;;;;14.06;47.64;100648.47;4451710;32;31841;-89
2023/04/09 12:27:54;;;;;;;;;;;;;;;13.96;46.52;100652.38;4443326;32;34416;-87
2023/04/09 12:30:22;;;;;;;;;;;;;;;14.35;46.15;100653.25;4461748;32;33418;-87
2023/04/09 12:32:50;;;;;;;;;;;;;;;14.26;47.64;100658.06;4470525;32;34594;-89
2023/04/09 12:35:17;;;;;;;;;;;;;;;14.15;47.94;100656.69;4464718;32;33787;-89
2023/04/09 12:37:46;;;;;;;;;;;;;;;13.40;49.92;100650.69;4466830;32;34662;-88
2023/04/09 12:40:13;;;;;;;;;;;;;;;14.04;49.55;100655.31;4468040;32;35107;-89
2023/04/09 12:42:41;;;;;;;;;;;;;;;14.00;47.26;100658.63;4448340;32;33918;-88
2023/04/09 12:45:08;;;;;;;;;;;;;;;13.09;48.33;100655.25;4462233;32;32967;-88
2023/04/09 12:47:36;;;;;;;;;;;;;;;13.42;50.01;100652.50;4451091;32;34076;-90
2023/04/09 12:50:04;;;;;;;;;;;;;;;13.85;48.91;100656.19;4469042;32;33728;-88